sensor_id;sensor_type;location;lat;lon;timestamp;P1;durP1;ratioP1;P2;durP2;ratioP2
27722;SDS011;15123;-37.794;175.246;2022-10-31T00:03:00;4.55;;;0.70;;
27722;SDS011;15123;-37.794;175.246;2022-10-31T00:06:03;6.85;;;0.95;;
27722;SDS011;15123;-37.794;175.246;2022-10-31T00:09:06;5.10;;;0.80;;
27722;SDS011;15123;-37.794;175.246;2022-10-31T00:12:09;3.00;;;0.70;;
27722;SDS011;15123;-37.794;175.246;2022-10-31T00:15:13;4.32;;;0.70;;
27722;SDS011;15123;-37.794;175.246;2022-10-31T00:18:16;5.45;;;0.70;;
27722;SDS011;15123;-37.794;175.246;2022-10-31T00:21:19;4.07;;;0.90;;
27722;SDS011;15123;-37.794;175.246;2022-10-31T00:24:17;5.53;;;1.67;;
27722;SDS011;15123;-37.794;175.246;2022-10-31T00:27:14;4.25;;;0.70;;
27722;SDS011;15123;-37.794;175.246;2022-10-31T00:30:17;5.35;;;0.73;;
27722;SDS011;15123;-37.794;175.246;2022-10-31T00:33:22;4.43;;;0.90;;
27722;SDS011;15123;-37.794;175.246;2022-10-31T00:36:25;4.15;;;0.70;;
27722;SDS011;15123;-37.794;175.246;2022-10-31T00:39:28;3.72;;;0.60;;
27722;SDS011;15123;-37.794;175.246;2022-10-31T00:42:32;4.47;;;0.88;;
27722;SDS011;15123;-37.794;175.246;2022-10-31T00:45:37;4.78;;;0.80;;
27722;SDS011;15123;-37.794;175.246;2022-10-31T00:48:40;3.97;;;0.77;;
27722;SDS011;15123;-37.794;175.246;2022-10-31T00:51:44;3.60;;;0.77;;
27722;SDS011;15123;-37.794;175.246;2022-10-31T00:54:48;4.20;;;0.80;;
27722;SDS011;15123;-37.794;175.246;2022-10-31T00:57:51;4.55;;;0.70;;
27722;SDS011;15123;-37.794;175.246;2022-10-31T01:00:54;3.08;;;0.70;;
27722;SDS011;15123;-37.794;175.246;2022-10-31T01:03:58;4.95;;;0.82;;
27722;SDS011;15123;-37.794;175.246;2022-10-31T01:07:02;4.07;;;0.77;;
27722;SDS011;15123;-37.794;175.246;2022-10-31T01:10:08;3.45;;;0.63;;
27722;SDS011;15123;-37.794;175.246;2022-10-31T01:13:12;5.35;;;0.80;;
27722;SDS011;15123;-37.794;175.246;2022-10-31T01:16:16;3.47;;;0.80;;
27722;SDS011;15123;-37.794;175.246;2022-10-31T01:19:19;5.15;;;0.80;;
27722;SDS011;15123;-37.794;175.246;2022-10-31T01:22:23;5.00;;;0.90;;
27722;SDS011;15123;-37.794;175.246;2022-10-31T01:25:21;4.45;;;0.80;;
27722;SDS011;15123;-37.794;175.246;2022-10-31T01:28:18;3.15;;;0.70;;
27722;SDS011;15123;-37.794;175.246;2022-10-31T01:31:22;3.58;;;0.70;;
27722;SDS011;15123;-37.794;175.246;2022-10-31T01:34:28;3.40;;;0.65;;
27722;SDS011;15123;-37.794;175.246;2022-10-31T01:37:31;4.88;;;0.80;;
27722;SDS011;15123;-37.794;175.246;2022-10-31T01:40:34;4.40;;;0.75;;
27722;SDS011;15123;-37.794;175.246;2022-10-31T01:43:43;3.75;;;0.70;;
27722;SDS011;15123;-37.794;175.246;2022-10-31T01:50:34;3.50;;;0.70;;
27722;SDS011;15123;-37.794;175.246;2022-10-31T01:53:39;3.88;;;0.70;;
27722;SDS011;15123;-37.794;175.246;2022-10-31T01:56:42;3.65;;;0.80;;
27722;SDS011;15123;-37.794;175.246;2022-10-31T01:59:58;3.90;;;0.80;;
27722;SDS011;15123;-37.794;175.246;2022-10-31T02:03:04;5.38;;;1.00;;
27722;SDS011;15123;-37.794;175.246;2022-10-31T02:06:10;5.82;;;0.88;;
27722;SDS011;15123;-37.794;175.246;2022-10-31T02:09:20;6.00;;;1.23;;
27722;SDS011;15123;-37.794;175.246;2022-10-31T02:12:23;4.85;;;1.17;;
27722;SDS011;15123;-37.794;175.246;2022-10-31T02:15:28;4.05;;;0.82;;
27722;SDS011;15123;-37.794;175.246;2022-10-31T02:18:33;4.40;;;0.70;;
27722;SDS011;15123;-37.794;175.246;2022-10-31T02:24:45;4.35;;;0.55;;
27722;SDS011;15123;-37.794;175.246;2022-10-31T02:34:58;5.65;;;0.90;;
27722;SDS011;15123;-37.794;175.246;2022-10-31T02:41:41;7.70;;;1.02;;
27722;SDS011;15123;-37.794;175.246;2022-10-31T02:48:24;5.57;;;0.82;;
27722;SDS011;15123;-37.794;175.246;2022-10-31T02:51:31;6.00;;;0.95;;
27722;SDS011;15123;-37.794;175.246;2022-10-31T02:54:34;7.38;;;0.93;;
27722;SDS011;15123;-37.794;175.246;2022-10-31T02:57:37;4.50;;;0.90;;
27722;SDS011;15123;-37.794;175.246;2022-10-31T03:13:54;5.00;;;0.82;;
27722;SDS011;15123;-37.794;175.246;2022-10-31T03:17:08;4.70;;;0.90;;
27722;SDS011;15123;-37.794;175.246;2022-10-31T03:20:26;4.00;;;0.80;;
27722;SDS011;15123;-37.794;175.246;2022-10-31T03:26:40;4.35;;;0.68;;
27722;SDS011;15123;-37.794;175.246;2022-10-31T03:29:42;4.53;;;0.60;;
27722;SDS011;15123;-37.794;175.246;2022-10-31T03:32:46;3.88;;;0.70;;
27722;SDS011;15123;-37.794;175.246;2022-10-31T03:35:52;4.47;;;0.80;;
27722;SDS011;15123;-37.794;175.246;2022-10-31T03:38:56;3.80;;;0.70;;
27722;SDS011;15123;-37.794;175.246;2022-10-31T03:42:05;6.43;;;1.20;;
27722;SDS011;15123;-37.794;175.246;2022-10-31T03:45:12;5.80;;;1.45;;
27722;SDS011;15123;-37.794;175.246;2022-10-31T03:48:18;5.15;;;0.70;;
27722;SDS011;15123;-37.794;175.246;2022-10-31T03:51:26;5.70;;;0.80;;
27722;SDS011;15123;-37.794;175.246;2022-10-31T03:54:33;4.78;;;0.70;;
27722;SDS011;15123;-37.794;175.246;2022-10-31T04:01:13;3.67;;;0.60;;
27722;SDS011;15123;-37.794;175.246;2022-10-31T04:04:19;3.03;;;0.57;;
27722;SDS011;15123;-37.794;175.246;2022-10-31T04:07:25;4.30;;;0.60;;
27722;SDS011;15123;-37.794;175.246;2022-10-31T04:10:30;2.50;;;0.50;;
27722;SDS011;15123;-37.794;175.246;2022-10-31T04:13:34;4.35;;;0.60;;
27722;SDS011;15123;-37.794;175.246;2022-10-31T04:16:40;3.15;;;0.63;;
27722;SDS011;15123;-37.794;175.246;2022-10-31T04:19:49;3.28;;;0.50;;
27722;SDS011;15123;-37.794;175.246;2022-10-31T04:22:52;3.28;;;0.60;;
27722;SDS011;15123;-37.794;175.246;2022-10-31T04:26:01;4.25;;;0.60;;
27722;SDS011;15123;-37.794;175.246;2022-10-31T04:29:05;4.60;;;0.70;;
27722;SDS011;15123;-37.794;175.246;2022-10-31T04:32:08;5.18;;;0.60;;
27722;SDS011;15123;-37.794;175.246;2022-10-31T04:35:30;4.00;;;0.63;;
27722;SDS011;15123;-37.794;175.246;2022-10-31T04:38:53;3.33;;;0.60;;
27722;SDS011;15123;-37.794;175.246;2022-10-31T04:42:31;3.80;;;0.60;;
27722;SDS011;15123;-37.794;175.246;2022-10-31T04:45:55;5.45;;;0.65;;
27722;SDS011;15123;-37.794;175.246;2022-10-31T04:49:21;3.90;;;0.50;;
27722;SDS011;15123;-37.794;175.246;2022-10-31T04:52:46;3.38;;;0.60;;
27722;SDS011;15123;-37.794;175.246;2022-10-31T04:56:23;4.18;;;0.45;;
27722;SDS011;15123;-37.794;175.246;2022-10-31T04:59:52;2.90;;;0.50;;
27722;SDS011;15123;-37.794;175.246;2022-10-31T05:03:17;2.97;;;0.60;;
27722;SDS011;15123;-37.794;175.246;2022-10-31T05:06:42;2.30;;;0.50;;
27722;SDS011;15123;-37.794;175.246;2022-10-31T05:10:06;4.88;;;0.60;;
27722;SDS011;15123;-37.794;175.246;2022-10-31T05:13:34;4.13;;;0.50;;
27722;SDS011;15123;-37.794;175.246;2022-10-31T05:17:24;2.35;;;0.45;;
27722;SDS011;15123;-37.794;175.246;2022-10-31T05:21:06;3.35;;;0.60;;
27722;SDS011;15123;-37.794;175.246;2022-10-31T05:24:36;4.38;;;0.60;;
27722;SDS011;15123;-37.794;175.246;2022-10-31T05:27:59;4.80;;;0.70;;
27722;SDS011;15123;-37.794;175.246;2022-10-31T05:31:17;3.38;;;0.50;;
27722;SDS011;15123;-37.794;175.246;2022-10-31T05:34:35;3.70;;;0.60;;
27722;SDS011;15123;-37.794;175.246;2022-10-31T05:38:33;2.70;;;0.40;;
27722;SDS011;15123;-37.794;175.246;2022-10-31T05:41:59;5.65;;;0.88;;
27722;SDS011;15123;-37.794;175.246;2022-10-31T05:45:22;6.03;;;0.65;;
27722;SDS011;15123;-37.794;175.246;2022-10-31T05:49:06;4.68;;;0.70;;
27722;SDS011;15123;-37.794;175.246;2022-10-31T05:52:57;2.75;;;0.60;;
27722;SDS011;15123;-37.794;175.246;2022-10-31T05:56:18;6.45;;;0.85;;
27722;SDS011;15123;-37.794;175.246;2022-10-31T05:59:43;5.38;;;0.70;;
27722;SDS011;15123;-37.794;175.246;2022-10-31T06:03:21;4.80;;;0.73;;
27722;SDS011;15123;-37.794;175.246;2022-10-31T06:06:49;3.17;;;0.60;;
27722;SDS011;15123;-37.794;175.246;2022-10-31T06:10:13;5.05;;;0.80;;
27722;SDS011;15123;-37.794;175.246;2022-10-31T06:13:38;4.30;;;0.68;;
27722;SDS011;15123;-37.794;175.246;2022-10-31T06:17:09;3.95;;;0.68;;
27722;SDS011;15123;-37.794;175.246;2022-10-31T06:20:55;4.30;;;0.80;;
27722;SDS011;15123;-37.794;175.246;2022-10-31T06:24:25;3.10;;;0.60;;
27722;SDS011;15123;-37.794;175.246;2022-10-31T06:28:10;4.32;;;0.80;;
27722;SDS011;15123;-37.794;175.246;2022-10-31T06:31:46;3.28;;;0.60;;
27722;SDS011;15123;-37.794;175.246;2022-10-31T06:35:14;3.22;;;0.70;;
27722;SDS011;15123;-37.794;175.246;2022-10-31T06:38:39;4.82;;;0.70;;
27722;SDS011;15123;-37.794;175.246;2022-10-31T06:42:03;4.45;;;0.70;;
27722;SDS011;15123;-37.794;175.246;2022-10-31T06:45:27;3.65;;;0.60;;
27722;SDS011;15123;-37.794;175.246;2022-10-31T06:48:56;4.40;;;0.63;;
27722;SDS011;15123;-37.794;175.246;2022-10-31T06:52:27;2.80;;;0.60;;
27722;SDS011;15123;-37.794;175.246;2022-10-31T06:55:50;2.90;;;0.60;;
27722;SDS011;15123;-37.794;175.246;2022-10-31T06:59:20;4.57;;;0.80;;
27722;SDS011;15123;-37.794;175.246;2022-10-31T07:03:12;3.83;;;0.77;;
27722;SDS011;15123;-37.794;175.246;2022-10-31T07:06:36;3.38;;;0.80;;
27722;SDS011;15123;-37.794;175.246;2022-10-31T07:09:59;3.00;;;0.75;;
27722;SDS011;15123;-37.794;175.246;2022-10-31T07:13:32;5.07;;;0.70;;
27722;SDS011;15123;-37.794;175.246;2022-10-31T07:16:57;4.30;;;0.60;;
27722;SDS011;15123;-37.794;175.246;2022-10-31T07:20:21;4.38;;;0.80;;
27722;SDS011;15123;-37.794;175.246;2022-10-31T07:23:47;3.67;;;0.68;;
27722;SDS011;15123;-37.794;175.246;2022-10-31T07:27:38;3.38;;;0.60;;
27722;SDS011;15123;-37.794;175.246;2022-10-31T07:31:02;3.05;;;0.63;;
27722;SDS011;15123;-37.794;175.246;2022-10-31T07:34:30;2.55;;;0.60;;
27722;SDS011;15123;-37.794;175.246;2022-10-31T07:38:09;4.17;;;0.70;;
27722;SDS011;15123;-37.794;175.246;2022-10-31T07:41:27;3.97;;;0.80;;
27722;SDS011;15123;-37.794;175.246;2022-10-31T07:44:53;6.03;;;1.45;;
27722;SDS011;15123;-37.794;175.246;2022-10-31T07:48:40;5.85;;;1.55;;
27722;SDS011;15123;-37.794;175.246;2022-10-31T07:52:23;5.25;;;1.20;;
27722;SDS011;15123;-37.794;175.246;2022-10-31T07:56:16;3.60;;;0.77;;
27722;SDS011;15123;-37.794;175.246;2022-10-31T07:59:41;4.45;;;0.88;;
27722;SDS011;15123;-37.794;175.246;2022-10-31T08:03:15;4.82;;;0.90;;
27722;SDS011;15123;-37.794;175.246;2022-10-31T08:06:58;4.93;;;0.80;;
27722;SDS011;15123;-37.794;175.246;2022-10-31T08:10:29;8.13;;;3.47;;
27722;SDS011;15123;-37.794;175.246;2022-10-31T08:13:52;5.65;;;1.60;;
27722;SDS011;15123;-37.794;175.246;2022-10-31T08:17:17;5.13;;;0.98;;
27722;SDS011;15123;-37.794;175.246;2022-10-31T08:20:44;4.32;;;1.00;;
27722;SDS011;15123;-37.794;175.246;2022-10-31T08:24:09;3.80;;;0.90;;
27722;SDS011;15123;-37.794;175.246;2022-10-31T08:27:33;4.03;;;1.00;;
27722;SDS011;15123;-37.794;175.246;2022-10-31T08:30:57;2.53;;;0.60;;
27722;SDS011;15123;-37.794;175.246;2022-10-31T08:34:41;3.50;;;0.75;;
27722;SDS011;15123;-37.794;175.246;2022-10-31T08:38:11;5.57;;;0.80;;
27722;SDS011;15123;-37.794;175.246;2022-10-31T08:41:36;4.47;;;0.85;;
27722;SDS011;15123;-37.794;175.246;2022-10-31T08:45:02;3.47;;;0.77;;
27722;SDS011;15123;-37.794;175.246;2022-10-31T08:48:27;3.42;;;0.75;;
27722;SDS011;15123;-37.794;175.246;2022-10-31T08:51:51;4.45;;;0.82;;
27722;SDS011;15123;-37.794;175.246;2022-10-31T08:55:21;5.13;;;0.90;;
27722;SDS011;15123;-37.794;175.246;2022-10-31T08:58:59;6.30;;;1.00;;
27722;SDS011;15123;-37.794;175.246;2022-10-31T09:02:41;3.83;;;0.80;;
27722;SDS011;15123;-37.794;175.246;2022-10-31T09:06:05;4.85;;;1.00;;
27722;SDS011;15123;-37.794;175.246;2022-10-31T09:09:29;4.65;;;0.80;;
27722;SDS011;15123;-37.794;175.246;2022-10-31T09:12:58;4.45;;;0.70;;
27722;SDS011;15123;-37.794;175.246;2022-10-31T09:16:42;5.80;;;0.73;;
27722;SDS011;15123;-37.794;175.246;2022-10-31T09:20:24;3.65;;;0.80;;
27722;SDS011;15123;-37.794;175.246;2022-10-31T09:23:48;7.25;;;1.30;;
27722;SDS011;15123;-37.794;175.246;2022-10-31T09:27:15;4.05;;;1.00;;
27722;SDS011;15123;-37.794;175.246;2022-10-31T09:30:40;4.55;;;0.90;;
27722;SDS011;15123;-37.794;175.246;2022-10-31T09:34:22;5.28;;;0.80;;
27722;SDS011;15123;-37.794;175.246;2022-10-31T09:37:55;5.00;;;0.80;;
27722;SDS011;15123;-37.794;175.246;2022-10-31T09:41:23;5.38;;;0.80;;
27722;SDS011;15123;-37.794;175.246;2022-10-31T09:44:50;4.43;;;0.75;;
27722;SDS011;15123;-37.794;175.246;2022-10-31T09:52:35;5.30;;;1.02;;
27722;SDS011;15123;-37.794;175.246;2022-10-31T09:55:59;4.45;;;0.90;;
27722;SDS011;15123;-37.794;175.246;2022-10-31T09:59:34;5.38;;;0.88;;
27722;SDS011;15123;-37.794;175.246;2022-10-31T10:06:38;5.63;;;0.95;;
27722;SDS011;15123;-37.794;175.246;2022-10-31T10:17:59;4.78;;;0.98;;
27722;SDS011;15123;-37.794;175.246;2022-10-31T10:21:32;4.75;;;0.90;;
27722;SDS011;15123;-37.794;175.246;2022-10-31T10:29:44;6.47;;;0.80;;
27722;SDS011;15123;-37.794;175.246;2022-10-31T10:33:14;5.15;;;1.00;;
27722;SDS011;15123;-37.794;175.246;2022-10-31T10:36:45;4.15;;;0.80;;
27722;SDS011;15123;-37.794;175.246;2022-10-31T10:40:17;5.18;;;0.90;;
27722;SDS011;15123;-37.794;175.246;2022-10-31T10:43:51;5.10;;;0.80;;
27722;SDS011;15123;-37.794;175.246;2022-10-31T10:47:14;4.60;;;0.90;;
27722;SDS011;15123;-37.794;175.246;2022-10-31T10:50:55;4.93;;;0.80;;
27722;SDS011;15123;-37.794;175.246;2022-10-31T10:54:42;6.00;;;1.13;;
27722;SDS011;15123;-37.794;175.246;2022-10-31T10:58:07;5.47;;;0.88;;
27722;SDS011;15123;-37.794;175.246;2022-10-31T11:01:30;5.68;;;0.90;;
27722;SDS011;15123;-37.794;175.246;2022-10-31T11:04:56;5.65;;;0.85;;
27722;SDS011;15123;-37.794;175.246;2022-10-31T11:11:49;3.38;;;0.90;;
27722;SDS011;15123;-37.794;175.246;2022-10-31T11:19:08;35.40;;;2.60;;
27722;SDS011;15123;-37.794;175.246;2022-10-31T11:22:34;4.50;;;0.90;;
27722;SDS011;15123;-37.794;175.246;2022-10-31T11:26:00;5.40;;;1.10;;
27722;SDS011;15123;-37.794;175.246;2022-10-31T11:29:27;3.15;;;0.82;;
27722;SDS011;15123;-37.794;175.246;2022-10-31T11:32:51;5.63;;;1.00;;
27722;SDS011;15123;-37.794;175.246;2022-10-31T11:39:39;5.63;;;1.58;;
27722;SDS011;15123;-37.794;175.246;2022-10-31T11:42:57;4.43;;;1.00;;
27722;SDS011;15123;-37.794;175.246;2022-10-31T11:50:09;5.75;;;1.10;;
27722;SDS011;15123;-37.794;175.246;2022-10-31T11:53:35;73.55;;;5.13;;
27722;SDS011;15123;-37.794;175.246;2022-10-31T11:57:04;5.88;;;1.17;;
27722;SDS011;15123;-37.794;175.246;2022-10-31T12:00:29;5.63;;;1.10;;
27722;SDS011;15123;-37.794;175.246;2022-10-31T12:04:07;5.47;;;1.00;;
27722;SDS011;15123;-37.794;175.246;2022-10-31T12:07:36;5.45;;;1.00;;
27722;SDS011;15123;-37.794;175.246;2022-10-31T12:15:04;4.05;;;0.90;;
27722;SDS011;15123;-37.794;175.246;2022-10-31T12:18:36;4.47;;;0.90;;
27722;SDS011;15123;-37.794;175.246;2022-10-31T12:22:28;4.80;;;0.90;;
27722;SDS011;15123;-37.794;175.246;2022-10-31T12:33:45;6.10;;;1.10;;
27722;SDS011;15123;-37.794;175.246;2022-10-31T12:41:19;5.18;;;1.10;;
27722;SDS011;15123;-37.794;175.246;2022-10-31T12:52:13;5.95;;;1.13;;
27722;SDS011;15123;-37.794;175.246;2022-10-31T12:55:52;11.07;;;1.37;;
27722;SDS011;15123;-37.794;175.246;2022-10-31T13:06:22;7.68;;;1.30;;
27722;SDS011;15123;-37.794;175.246;2022-10-31T13:13:42;6.85;;;1.05;;
27722;SDS011;15123;-37.794;175.246;2022-10-31T13:17:21;7.85;;;1.50;;
27722;SDS011;15123;-37.794;175.246;2022-10-31T13:21:01;5.55;;;1.20;;
27722;SDS011;15123;-37.794;175.246;2022-10-31T13:24:29;4.78;;;1.27;;
27722;SDS011;15123;-37.794;175.246;2022-10-31T13:28:02;4.70;;;1.30;;
27722;SDS011;15123;-37.794;175.246;2022-10-31T13:31:43;8.88;;;1.20;;
27722;SDS011;15123;-37.794;175.246;2022-10-31T13:35:13;4.93;;;1.30;;
27722;SDS011;15123;-37.794;175.246;2022-10-31T13:43:17;5.07;;;1.23;;
27722;SDS011;15123;-37.794;175.246;2022-10-31T13:46:22;7.05;;;1.48;;
27722;SDS011;15123;-37.794;175.246;2022-10-31T13:49:49;5.10;;;1.13;;
27722;SDS011;15123;-37.794;175.246;2022-10-31T13:53:14;5.25;;;1.30;;
27722;SDS011;15123;-37.794;175.246;2022-10-31T13:56:42;9.80;;;1.38;;
27722;SDS011;15123;-37.794;175.246;2022-10-31T14:03:44;5.95;;;1.20;;
27722;SDS011;15123;-37.794;175.246;2022-10-31T14:07:30;5.80;;;1.38;;
27722;SDS011;15123;-37.794;175.246;2022-10-31T14:10:54;5.57;;;1.40;;
27722;SDS011;15123;-37.794;175.246;2022-10-31T14:14:19;7.63;;;1.33;;
27722;SDS011;15123;-37.794;175.246;2022-10-31T14:17:52;5.80;;;1.25;;
27722;SDS011;15123;-37.794;175.246;2022-10-31T14:24:47;5.68;;;1.15;;
27722;SDS011;15123;-37.794;175.246;2022-10-31T14:39:39;5.50;;;1.23;;
27722;SDS011;15123;-37.794;175.246;2022-10-31T14:50:59;5.25;;;1.30;;
27722;SDS011;15123;-37.794;175.246;2022-10-31T14:54:32;5.82;;;1.33;;
27722;SDS011;15123;-37.794;175.246;2022-10-31T14:58:04;6.47;;;1.40;;
27722;SDS011;15123;-37.794;175.246;2022-10-31T15:01:33;5.00;;;1.40;;
27722;SDS011;15123;-37.794;175.246;2022-10-31T15:05:00;7.25;;;1.35;;
27722;SDS011;15123;-37.794;175.246;2022-10-31T15:11:58;5.43;;;1.45;;
27722;SDS011;15123;-37.794;175.246;2022-10-31T15:15:23;5.80;;;1.40;;
27722;SDS011;15123;-37.794;175.246;2022-10-31T15:18:56;5.22;;;1.48;;
27722;SDS011;15123;-37.794;175.246;2022-10-31T15:22:33;6.50;;;1.35;;
27722;SDS011;15123;-37.794;175.246;2022-10-31T15:26:04;6.95;;;1.50;;
27722;SDS011;15123;-37.794;175.246;2022-10-31T15:29:30;8.02;;;1.60;;
27722;SDS011;15123;-37.794;175.246;2022-10-31T15:33:00;6.72;;;1.50;;
27722;SDS011;15123;-37.794;175.246;2022-10-31T15:36:37;6.88;;;1.52;;
27722;SDS011;15123;-37.794;175.246;2022-10-31T15:40:15;6.32;;;1.30;;
27722;SDS011;15123;-37.794;175.246;2022-10-31T15:43:45;5.57;;;1.20;;
27722;SDS011;15123;-37.794;175.246;2022-10-31T15:47:26;6.88;;;1.75;;
27722;SDS011;15123;-37.794;175.246;2022-10-31T15:50:55;6.38;;;1.70;;
27722;SDS011;15123;-37.794;175.246;2022-10-31T15:54:25;7.28;;;1.58;;
27722;SDS011;15123;-37.794;175.246;2022-10-31T15:57:49;6.47;;;1.60;;
27722;SDS011;15123;-37.794;175.246;2022-10-31T16:01:22;5.55;;;1.67;;
27722;SDS011;15123;-37.794;175.246;2022-10-31T16:04:54;6.63;;;1.60;;
27722;SDS011;15123;-37.794;175.246;2022-10-31T16:08:32;4.45;;;1.30;;
27722;SDS011;15123;-37.794;175.246;2022-10-31T16:11:56;6.93;;;1.60;;
27722;SDS011;15123;-37.794;175.246;2022-10-31T16:15:22;4.85;;;1.45;;
27722;SDS011;15123;-37.794;175.246;2022-10-31T16:18:50;8.57;;;1.63;;
27722;SDS011;15123;-37.794;175.246;2022-10-31T16:22:19;7.18;;;1.60;;
27722;SDS011;15123;-37.794;175.246;2022-10-31T16:26:07;6.57;;;1.65;;
27722;SDS011;15123;-37.794;175.246;2022-10-31T16:32:59;8.80;;;1.83;;
27722;SDS011;15123;-37.794;175.246;2022-10-31T16:36:33;6.43;;;1.60;;
27722;SDS011;15123;-37.794;175.246;2022-10-31T16:39:57;7.47;;;1.70;;
27722;SDS011;15123;-37.794;175.246;2022-10-31T16:43:22;6.63;;;1.80;;
27722;SDS011;15123;-37.794;175.246;2022-10-31T16:46:46;8.75;;;1.65;;
27722;SDS011;15123;-37.794;175.246;2022-10-31T16:50:12;5.53;;;1.70;;
27722;SDS011;15123;-37.794;175.246;2022-10-31T16:53:37;7.05;;;1.52;;
27722;SDS011;15123;-37.794;175.246;2022-10-31T16:57:02;7.57;;;1.98;;
27722;SDS011;15123;-37.794;175.246;2022-10-31T17:00:27;5.97;;;1.70;;
27722;SDS011;15123;-37.794;175.246;2022-10-31T17:03:50;7.35;;;1.80;;
27722;SDS011;15123;-37.794;175.246;2022-10-31T17:07:15;6.53;;;1.83;;
27722;SDS011;15123;-37.794;175.246;2022-10-31T17:10:40;8.75;;;2.03;;
27722;SDS011;15123;-37.794;175.246;2022-10-31T17:14:04;6.40;;;1.80;;
27722;SDS011;15123;-37.794;175.246;2022-10-31T17:17:28;6.15;;;1.70;;
27722;SDS011;15123;-37.794;175.246;2022-10-31T17:20:56;5.53;;;1.70;;
27722;SDS011;15123;-37.794;175.246;2022-10-31T17:24:20;8.65;;;2.05;;
27722;SDS011;15123;-37.794;175.246;2022-10-31T17:27:43;8.95;;;1.95;;
27722;SDS011;15123;-37.794;175.246;2022-10-31T17:31:10;6.55;;;2.15;;
27722;SDS011;15123;-37.794;175.246;2022-10-31T17:34:44;5.78;;;2.00;;
27722;SDS011;15123;-37.794;175.246;2022-10-31T17:38:09;9.23;;;2.00;;
27722;SDS011;15123;-37.794;175.246;2022-10-31T17:41:32;5.80;;;2.13;;
27722;SDS011;15123;-37.794;175.246;2022-10-31T17:44:57;6.95;;;1.95;;
27722;SDS011;15123;-37.794;175.246;2022-10-31T17:48:21;6.38;;;2.13;;
27722;SDS011;15123;-37.794;175.246;2022-10-31T17:51:45;7.97;;;2.00;;
27722;SDS011;15123;-37.794;175.246;2022-10-31T17:55:10;6.00;;;1.77;;
27722;SDS011;15123;-37.794;175.246;2022-10-31T17:58:28;7.35;;;1.90;;
27722;SDS011;15123;-37.794;175.246;2022-10-31T18:01:51;10.10;;;2.13;;
27722;SDS011;15123;-37.794;175.246;2022-10-31T18:05:16;8.48;;;2.17;;
27722;SDS011;15123;-37.794;175.246;2022-10-31T18:08:41;6.50;;;1.90;;
27722;SDS011;15123;-37.794;175.246;2022-10-31T18:12:05;6.63;;;2.45;;
27722;SDS011;15123;-37.794;175.246;2022-10-31T18:15:29;6.72;;;2.30;;
27722;SDS011;15123;-37.794;175.246;2022-10-31T18:18:53;6.68;;;2.33;;
27722;SDS011;15123;-37.794;175.246;2022-10-31T18:22:18;7.65;;;2.45;;
27722;SDS011;15123;-37.794;175.246;2022-10-31T18:25:41;8.45;;;2.42;;
27722;SDS011;15123;-37.794;175.246;2022-10-31T18:29:05;7.00;;;2.03;;
27722;SDS011;15123;-37.794;175.246;2022-10-31T18:32:21;5.68;;;1.83;;
27722;SDS011;15123;-37.794;175.246;2022-10-31T18:35:46;5.28;;;1.88;;
27722;SDS011;15123;-37.794;175.246;2022-10-31T18:39:10;6.10;;;1.70;;
27722;SDS011;15123;-37.794;175.246;2022-10-31T18:42:33;4.88;;;1.55;;
27722;SDS011;15123;-37.794;175.246;2022-10-31T18:45:52;7.05;;;1.90;;
27722;SDS011;15123;-37.794;175.246;2022-10-31T18:49:09;9.07;;;2.55;;
27722;SDS011;15123;-37.794;175.246;2022-10-31T18:52:38;7.20;;;1.95;;
27722;SDS011;15123;-37.794;175.246;2022-10-31T18:56:06;5.15;;;1.55;;
27722;SDS011;15123;-37.794;175.246;2022-10-31T18:59:30;8.35;;;1.98;;
27722;SDS011;15123;-37.794;175.246;2022-10-31T19:02:56;6.93;;;1.90;;
27722;SDS011;15123;-37.794;175.246;2022-10-31T19:06:23;4.80;;;1.40;;
27722;SDS011;15123;-37.794;175.246;2022-10-31T19:09:47;5.65;;;1.50;;
27722;SDS011;15123;-37.794;175.246;2022-10-31T19:13:12;7.95;;;1.40;;
27722;SDS011;15123;-37.794;175.246;2022-10-31T19:16:36;6.88;;;1.55;;
27722;SDS011;15123;-37.794;175.246;2022-10-31T19:20:00;6.13;;;1.48;;
27722;SDS011;15123;-37.794;175.246;2022-10-31T19:23:24;6.50;;;1.38;;
27722;SDS011;15123;-37.794;175.246;2022-10-31T19:26:48;4.47;;;1.13;;
27722;SDS011;15123;-37.794;175.246;2022-10-31T19:30:06;6.95;;;1.75;;
27722;SDS011;15123;-37.794;175.246;2022-10-31T19:33:32;6.57;;;1.20;;
27722;SDS011;15123;-37.794;175.246;2022-10-31T19:36:56;6.68;;;1.17;;
27722;SDS011;15123;-37.794;175.246;2022-10-31T19:40:21;6.07;;;1.08;;
27722;SDS011;15123;-37.794;175.246;2022-10-31T19:43:45;6.70;;;1.30;;
27722;SDS011;15123;-37.794;175.246;2022-10-31T19:47:08;6.43;;;1.10;;
27722;SDS011;15123;-37.794;175.246;2022-10-31T19:50:31;4.65;;;1.00;;
27722;SDS011;15123;-37.794;175.246;2022-10-31T19:53:55;6.97;;;1.02;;
27722;SDS011;15123;-37.794;175.246;2022-10-31T19:57:18;6.32;;;0.98;;
27722;SDS011;15123;-37.794;175.246;2022-10-31T20:01:10;6.43;;;1.13;;
27722;SDS011;15123;-37.794;175.246;2022-10-31T20:04:33;4.90;;;1.00;;
27722;SDS011;15123;-37.794;175.246;2022-10-31T20:07:59;9.27;;;1.10;;
27722;SDS011;15123;-37.794;175.246;2022-10-31T20:11:23;6.95;;;1.10;;
27722;SDS011;15123;-37.794;175.246;2022-10-31T20:14:48;6.82;;;1.25;;
27722;SDS011;15123;-37.794;175.246;2022-10-31T20:18:11;5.55;;;0.90;;
27722;SDS011;15123;-37.794;175.246;2022-10-31T20:21:36;6.10;;;1.05;;
27722;SDS011;15123;-37.794;175.246;2022-10-31T20:25:02;7.47;;;1.05;;
27722;SDS011;15123;-37.794;175.246;2022-10-31T20:28:26;8.32;;;1.42;;
27722;SDS011;15123;-37.794;175.246;2022-10-31T20:31:51;6.40;;;1.02;;
27722;SDS011;15123;-37.794;175.246;2022-10-31T20:35:16;5.93;;;1.20;;
27722;SDS011;15123;-37.794;175.246;2022-10-31T20:38:40;7.43;;;0.90;;
27722;SDS011;15123;-37.794;175.246;2022-10-31T20:42:05;6.82;;;1.20;;
27722;SDS011;15123;-37.794;175.246;2022-10-31T20:45:29;6.90;;;1.02;;
27722;SDS011;15123;-37.794;175.246;2022-10-31T20:48:47;9.90;;;1.20;;
27722;SDS011;15123;-37.794;175.246;2022-10-31T20:52:11;8.40;;;1.00;;
27722;SDS011;15123;-37.794;175.246;2022-10-31T20:55:36;6.72;;;1.00;;
27722;SDS011;15123;-37.794;175.246;2022-10-31T20:59:00;7.57;;;0.90;;
27722;SDS011;15123;-37.794;175.246;2022-10-31T21:02:23;6.03;;;1.05;;
27722;SDS011;15123;-37.794;175.246;2022-10-31T21:05:59;6.45;;;1.10;;
27722;SDS011;15123;-37.794;175.246;2022-10-31T21:09:23;5.93;;;0.93;;
27722;SDS011;15123;-37.794;175.246;2022-10-31T21:12:48;6.43;;;1.00;;
27722;SDS011;15123;-37.794;175.246;2022-10-31T21:16:13;9.60;;;1.17;;
27722;SDS011;15123;-37.794;175.246;2022-10-31T21:19:39;6.25;;;0.80;;
27722;SDS011;15123;-37.794;175.246;2022-10-31T21:23:03;4.47;;;1.00;;
27722;SDS011;15123;-37.794;175.246;2022-10-31T21:26:28;5.65;;;1.10;;
27722;SDS011;15123;-37.794;175.246;2022-10-31T21:29:53;5.18;;;0.90;;
27722;SDS011;15123;-37.794;175.246;2022-10-31T21:33:19;5.10;;;0.90;;
27722;SDS011;15123;-37.794;175.246;2022-10-31T21:36:43;6.15;;;0.90;;
27722;SDS011;15123;-37.794;175.246;2022-10-31T21:40:07;8.38;;;1.10;;
27722;SDS011;15123;-37.794;175.246;2022-10-31T21:43:34;8.13;;;1.10;;
27722;SDS011;15123;-37.794;175.246;2022-10-31T21:46:54;7.80;;;1.10;;
27722;SDS011;15123;-37.794;175.246;2022-10-31T21:50:11;6.80;;;1.10;;
27722;SDS011;15123;-37.794;175.246;2022-10-31T21:53:35;8.65;;;1.33;;
27722;SDS011;15123;-37.794;175.246;2022-10-31T21:57:17;6.65;;;0.93;;
27722;SDS011;15123;-37.794;175.246;2022-10-31T22:00:41;5.68;;;0.90;;